sensor_id;sensor_type;location;lat;lon;timestamp;P1;durP1;ratioP1;P2;durP2;ratioP2
29352;SDS011;16344;50.364;8.944;2023-04-08T00:00:01;20.65;;;10.07;;
29352;SDS011;16344;50.364;8.944;2023-04-08T00:02:28;21.55;;;9.52;;
29352;SDS011;16344;50.364;8.944;2023-04-08T00:04:53;16.08;;;9.65;;
29352;SDS011;16344;50.364;8.944;2023-04-08T00:07:19;14.07;;;8.98;;
29352;SDS011;16344;50.364;8.944;2023-04-08T00:09:44;15.98;;;9.90;;
29352;SDS011;16344;50.364;8.944;2023-04-08T00:12:10;14.63;;;9.15;;
29352;SDS011;16344;50.364;8.944;2023-04-08T00:14:36;14.98;;;9.35;;
29352;SDS011;16344;50.364;8.944;2023-04-08T00:17:02;13.32;;;8.70;;
29352;SDS011;16344;50.364;8.944;2023-04-08T00:19:27;11.95;;;8.38;;
29352;SDS011;16344;50.364;8.944;2023-04-08T00:21:53;14.43;;;8.85;;
29352;SDS011;16344;50.364;8.944;2023-04-08T00:24:18;13.98;;;8.18;;
29352;SDS011;16344;50.364;8.944;2023-04-08T00:26:44;14.57;;;8.68;;
29352;SDS011;16344;50.364;8.944;2023-04-08T00:29:10;16.17;;;10.18;;
29352;SDS011;16344;50.364;8.944;2023-04-08T00:31:35;18.08;;;9.15;;
29352;SDS011;16344;50.364;8.944;2023-04-08T00:34:01;16.80;;;10.20;;
29352;SDS011;16344;50.364;8.944;2023-04-08T00:36:26;17.38;;;11.02;;
29352;SDS011;16344;50.364;8.944;2023-04-08T00:38:52;15.52;;;10.68;;
29352;SDS011;16344;50.364;8.944;2023-04-08T00:41:17;19.05;;;10.63;;
29352;SDS011;16344;50.364;8.944;2023-04-08T00:43:43;17.98;;;11.82;;
29352;SDS011;16344;50.364;8.944;2023-04-08T00:46:09;18.40;;;11.15;;
29352;SDS011;16344;50.364;8.944;2023-04-08T00:48:35;17.08;;;11.60;;
29352;SDS011;16344;50.364;8.944;2023-04-08T00:51:00;30.75;;;11.52;;
29352;SDS011;16344;50.364;8.944;2023-04-08T00:53:27;15.05;;;10.55;;
29352;SDS011;16344;50.364;8.944;2023-04-08T00:55:55;14.00;;;9.63;;
29352;SDS011;16344;50.364;8.944;2023-04-08T00:58:21;15.60;;;9.25;;
29352;SDS011;16344;50.364;8.944;2023-04-08T01:00:49;19.52;;;9.23;;
29352;SDS011;16344;50.364;8.944;2023-04-08T01:03:26;12.25;;;8.95;;
29352;SDS011;16344;50.364;8.944;2023-04-08T01:08:41;26.75;;;8.00;;
29352;SDS011;16344;50.364;8.944;2023-04-08T01:11:09;19.58;;;8.63;;
29352;SDS011;16344;50.364;8.944;2023-04-08T01:13:36;56.90;;;8.73;;
29352;SDS011;16344;50.364;8.944;2023-04-08T01:16:04;12.52;;;8.57;;
29352;SDS011;16344;50.364;8.944;2023-04-08T01:18:33;33.88;;;7.72;;
29352;SDS011;16344;50.364;8.944;2023-04-08T01:21:01;13.90;;;6.63;;
29352;SDS011;16344;50.364;8.944;2023-04-08T01:23:32;112.95;;;9.25;;
29352;SDS011;16344;50.364;8.944;2023-04-08T01:26:24;31.20;;;8.35;;
29352;SDS011;16344;50.364;8.944;2023-04-08T01:28:51;13.88;;;5.63;;
29352;SDS011;16344;50.364;8.944;2023-04-08T01:31:19;133.50;;;7.63;;
29352;SDS011;16344;50.364;8.944;2023-04-08T01:33:46;32.85;;;4.97;;
29352;SDS011;16344;50.364;8.944;2023-04-08T01:36:13;171.80;;;8.25;;
29352;SDS011;16344;50.364;8.944;2023-04-08T01:38:40;35.35;;;4.47;;
29352;SDS011;16344;50.364;8.944;2023-04-08T01:41:07;7.07;;;4.22;;
29352;SDS011;16344;50.364;8.944;2023-04-08T01:43:35;50.17;;;5.80;;
29352;SDS011;16344;50.364;8.944;2023-04-08T01:46:03;63.13;;;5.32;;
29352;SDS011;16344;50.364;8.944;2023-04-08T01:48:30;59.58;;;7.05;;
29352;SDS011;16344;50.364;8.944;2023-04-08T01:50:57;74.82;;;6.13;;
29352;SDS011;16344;50.364;8.944;2023-04-08T01:53:24;70.50;;;6.65;;
29352;SDS011;16344;50.364;8.944;2023-04-08T01:55:51;6.32;;;4.70;;
29352;SDS011;16344;50.364;8.944;2023-04-08T01:58:25;11.32;;;7.45;;
29352;SDS011;16344;50.364;8.944;2023-04-08T02:00:55;8.55;;;6.28;;
29352;SDS011;16344;50.364;8.944;2023-04-08T02:03:22;7.97;;;5.85;;
29352;SDS011;16344;50.364;8.944;2023-04-08T02:05:49;21.75;;;6.35;;
29352;SDS011;16344;50.364;8.944;2023-04-08T02:08:15;10.93;;;6.68;;
29352;SDS011;16344;50.364;8.944;2023-04-08T02:10:40;13.18;;;7.35;;
29352;SDS011;16344;50.364;8.944;2023-04-08T02:13:06;12.45;;;7.97;;
29352;SDS011;16344;50.364;8.944;2023-04-08T02:15:33;10.30;;;6.20;;
29352;SDS011;16344;50.364;8.944;2023-04-08T02:18:04;16.48;;;6.10;;
29352;SDS011;16344;50.364;8.944;2023-04-08T02:20:37;7.82;;;5.43;;
29352;SDS011;16344;50.364;8.944;2023-04-08T02:23:14;11.85;;;5.43;;
29352;SDS011;16344;50.364;8.944;2023-04-08T02:25:44;8.43;;;6.05;;
29352;SDS011;16344;50.364;8.944;2023-04-08T02:28:12;17.90;;;6.90;;
29352;SDS011;16344;50.364;8.944;2023-04-08T02:30:40;12.07;;;7.63;;
29352;SDS011;16344;50.364;8.944;2023-04-08T02:33:08;14.50;;;8.88;;
29352;SDS011;16344;50.364;8.944;2023-04-08T02:35:35;13.38;;;8.52;;
29352;SDS011;16344;50.364;8.944;2023-04-08T02:38:02;14.40;;;8.82;;
29352;SDS011;16344;50.364;8.944;2023-04-08T02:40:31;20.00;;;9.10;;
29352;SDS011;16344;50.364;8.944;2023-04-08T02:42:58;78.05;;;9.65;;
29352;SDS011;16344;50.364;8.944;2023-04-08T02:45:25;34.33;;;8.65;;
29352;SDS011;16344;50.364;8.944;2023-04-08T02:47:54;13.45;;;8.18;;
29352;SDS011;16344;50.364;8.944;2023-04-08T02:50:20;30.63;;;10.25;;
29352;SDS011;16344;50.364;8.944;2023-04-08T02:52:45;29.90;;;10.27;;
29352;SDS011;16344;50.364;8.944;2023-04-08T02:55:11;34.53;;;11.23;;
29352;SDS011;16344;50.364;8.944;2023-04-08T02:57:37;22.50;;;12.93;;
29352;SDS011;16344;50.364;8.944;2023-04-08T03:00:04;28.20;;;11.80;;
29352;SDS011;16344;50.364;8.944;2023-04-08T03:02:31;50.90;;;11.60;;
29352;SDS011;16344;50.364;8.944;2023-04-08T03:04:56;24.33;;;11.93;;
29352;SDS011;16344;50.364;8.944;2023-04-08T03:07:22;18.02;;;10.73;;
29352;SDS011;16344;50.364;8.944;2023-04-08T03:09:47;17.45;;;11.15;;
29352;SDS011;16344;50.364;8.944;2023-04-08T03:12:13;18.23;;;12.32;;
29352;SDS011;16344;50.364;8.944;2023-04-08T03:14:38;16.05;;;9.98;;
29352;SDS011;16344;50.364;8.944;2023-04-08T03:17:04;15.45;;;10.88;;
29352;SDS011;16344;50.364;8.944;2023-04-08T03:19:30;16.80;;;11.23;;
29352;SDS011;16344;50.364;8.944;2023-04-08T03:21:55;19.63;;;9.13;;
29352;SDS011;16344;50.364;8.944;2023-04-08T03:24:21;17.30;;;8.70;;
29352;SDS011;16344;50.364;8.944;2023-04-08T03:26:46;15.02;;;9.40;;
29352;SDS011;16344;50.364;8.944;2023-04-08T03:29:12;51.30;;;22.45;;
29352;SDS011;16344;50.364;8.944;2023-04-08T03:31:37;109.57;;;46.60;;
29352;SDS011;16344;50.364;8.944;2023-04-08T03:34:03;48.63;;;23.80;;
29352;SDS011;16344;50.364;8.944;2023-04-08T03:36:28;17.83;;;10.95;;
29352;SDS011;16344;50.364;8.944;2023-04-08T03:38:54;19.38;;;11.68;;
29352;SDS011;16344;50.364;8.944;2023-04-08T03:41:19;19.08;;;11.00;;
29352;SDS011;16344;50.364;8.944;2023-04-08T03:43:45;19.20;;;11.13;;
29352;SDS011;16344;50.364;8.944;2023-04-08T03:46:10;18.70;;;10.50;;
29352;SDS011;16344;50.364;8.944;2023-04-08T03:48:36;23.05;;;11.20;;
29352;SDS011;16344;50.364;8.944;2023-04-08T03:51:01;19.08;;;11.75;;
29352;SDS011;16344;50.364;8.944;2023-04-08T03:53:27;19.48;;;11.98;;
29352;SDS011;16344;50.364;8.944;2023-04-08T03:55:53;19.70;;;11.93;;
29352;SDS011;16344;50.364;8.944;2023-04-08T03:58:19;19.30;;;12.52;;
29352;SDS011;16344;50.364;8.944;2023-04-08T04:00:45;17.38;;;10.68;;
29352;SDS011;16344;50.364;8.944;2023-04-08T04:03:10;17.80;;;11.10;;
29352;SDS011;16344;50.364;8.944;2023-04-08T04:05:37;19.38;;;11.48;;
29352;SDS011;16344;50.364;8.944;2023-04-08T04:08:03;17.77;;;10.77;;
29352;SDS011;16344;50.364;8.944;2023-04-08T04:10:29;18.63;;;11.02;;
29352;SDS011;16344;50.364;8.944;2023-04-08T04:12:55;16.77;;;11.30;;
29352;SDS011;16344;50.364;8.944;2023-04-08T04:15:20;18.65;;;11.27;;
29352;SDS011;16344;50.364;8.944;2023-04-08T04:17:49;22.77;;;12.77;;
29352;SDS011;16344;50.364;8.944;2023-04-08T04:20:15;17.88;;;11.45;;
29352;SDS011;16344;50.364;8.944;2023-04-08T04:22:41;18.15;;;11.35;;
29352;SDS011;16344;50.364;8.944;2023-04-08T04:25:07;22.30;;;13.20;;
29352;SDS011;16344;50.364;8.944;2023-04-08T04:27:33;19.17;;;12.10;;
29352;SDS011;16344;50.364;8.944;2023-04-08T04:29:59;21.40;;;13.50;;
29352;SDS011;16344;50.364;8.944;2023-04-08T04:32:25;25.52;;;12.52;;
29352;SDS011;16344;50.364;8.944;2023-04-08T04:34:50;24.50;;;12.70;;
29352;SDS011;16344;50.364;8.944;2023-04-08T04:37:16;22.58;;;13.32;;
29352;SDS011;16344;50.364;8.944;2023-04-08T04:39:42;13.38;;;7.20;;
29352;SDS011;16344;50.364;8.944;2023-04-08T04:42:07;12.13;;;6.85;;
29352;SDS011;16344;50.364;8.944;2023-04-08T04:44:33;12.95;;;8.15;;
29352;SDS011;16344;50.364;8.944;2023-04-08T04:46:58;16.08;;;9.02;;
29352;SDS011;16344;50.364;8.944;2023-04-08T04:49:24;16.08;;;10.52;;
29352;SDS011;16344;50.364;8.944;2023-04-08T04:51:50;17.27;;;11.50;;
29352;SDS011;16344;50.364;8.944;2023-04-08T04:54:15;17.95;;;11.57;;
29352;SDS011;16344;50.364;8.944;2023-04-08T04:56:41;24.27;;;13.98;;
29352;SDS011;16344;50.364;8.944;2023-04-08T04:59:06;26.33;;;14.18;;
29352;SDS011;16344;50.364;8.944;2023-04-08T05:01:32;25.00;;;15.32;;
29352;SDS011;16344;50.364;8.944;2023-04-08T05:03:58;22.95;;;14.18;;
29352;SDS011;16344;50.364;8.944;2023-04-08T05:06:24;29.17;;;15.90;;
29352;SDS011;16344;50.364;8.944;2023-04-08T05:08:51;27.70;;;14.18;;
29352;SDS011;16344;50.364;8.944;2023-04-08T05:11:16;24.02;;;14.05;;
29352;SDS011;16344;50.364;8.944;2023-04-08T05:13:42;22.00;;;13.18;;
29352;SDS011;16344;50.364;8.944;2023-04-08T05:16:08;23.13;;;14.63;;
29352;SDS011;16344;50.364;8.944;2023-04-08T05:18:34;26.27;;;14.80;;
29352;SDS011;16344;50.364;8.944;2023-04-08T05:21:00;19.45;;;11.80;;
29352;SDS011;16344;50.364;8.944;2023-04-08T05:23:26;19.67;;;11.88;;
29352;SDS011;16344;50.364;8.944;2023-04-08T05:25:51;28.80;;;13.05;;
29352;SDS011;16344;50.364;8.944;2023-04-08T05:28:17;26.75;;;15.73;;
29352;SDS011;16344;50.364;8.944;2023-04-08T05:30:47;20.70;;;12.93;;
29352;SDS011;16344;50.364;8.944;2023-04-08T05:33:16;27.00;;;9.52;;
29352;SDS011;16344;50.364;8.944;2023-04-08T05:35:42;13.63;;;8.90;;
29352;SDS011;16344;50.364;8.944;2023-04-08T05:38:08;14.20;;;9.63;;
29352;SDS011;16344;50.364;8.944;2023-04-08T05:40:33;19.08;;;11.52;;
29352;SDS011;16344;50.364;8.944;2023-04-08T05:42:59;20.40;;;11.70;;
29352;SDS011;16344;50.364;8.944;2023-04-08T05:45:25;17.77;;;10.80;;
29352;SDS011;16344;50.364;8.944;2023-04-08T05:47:52;22.88;;;14.05;;
29352;SDS011;16344;50.364;8.944;2023-04-08T05:50:17;17.55;;;10.98;;
29352;SDS011;16344;50.364;8.944;2023-04-08T05:52:43;21.67;;;9.85;;
29352;SDS011;16344;50.364;8.944;2023-04-08T05:55:09;20.13;;;8.73;;
29352;SDS011;16344;50.364;8.944;2023-04-08T05:57:35;13.57;;;8.95;;
29352;SDS011;16344;50.364;8.944;2023-04-08T06:00:01;16.90;;;8.45;;
29352;SDS011;16344;50.364;8.944;2023-04-08T06:02:27;17.75;;;10.05;;
29352;SDS011;16344;50.364;8.944;2023-04-08T06:04:52;17.33;;;9.20;;
29352;SDS011;16344;50.364;8.944;2023-04-08T06:07:18;21.00;;;12.43;;
29352;SDS011;16344;50.364;8.944;2023-04-08T06:09:43;227.55;;;14.73;;
29352;SDS011;16344;50.364;8.944;2023-04-08T06:12:09;14.63;;;9.55;;
29352;SDS011;16344;50.364;8.944;2023-04-08T06:14:34;14.73;;;8.82;;
29352;SDS011;16344;50.364;8.944;2023-04-08T06:17:00;16.30;;;10.30;;
29352;SDS011;16344;50.364;8.944;2023-04-08T06:19:25;16.13;;;9.80;;
29352;SDS011;16344;50.364;8.944;2023-04-08T06:21:51;16.35;;;9.88;;
29352;SDS011;16344;50.364;8.944;2023-04-08T06:24:16;16.27;;;10.32;;
29352;SDS011;16344;50.364;8.944;2023-04-08T06:26:42;20.38;;;11.10;;
29352;SDS011;16344;50.364;8.944;2023-04-08T06:29:07;17.58;;;10.65;;
29352;SDS011;16344;50.364;8.944;2023-04-08T06:31:33;22.23;;;11.57;;
29352;SDS011;16344;50.364;8.944;2023-04-08T06:33:58;16.13;;;10.40;;
29352;SDS011;16344;50.364;8.944;2023-04-08T06:36:24;22.98;;;13.93;;
29352;SDS011;16344;50.364;8.944;2023-04-08T06:38:50;26.85;;;15.68;;
29352;SDS011;16344;50.364;8.944;2023-04-08T06:41:15;24.30;;;14.13;;
29352;SDS011;16344;50.364;8.944;2023-04-08T06:43:41;25.48;;;14.57;;
29352;SDS011;16344;50.364;8.944;2023-04-08T06:46:06;25.67;;;15.43;;
29352;SDS011;16344;50.364;8.944;2023-04-08T06:48:32;32.60;;;15.68;;
29352;SDS011;16344;50.364;8.944;2023-04-08T06:50:58;24.55;;;15.55;;
29352;SDS011;16344;50.364;8.944;2023-04-08T06:53:25;23.98;;;12.40;;
29352;SDS011;16344;50.364;8.944;2023-04-08T06:55:51;20.48;;;12.13;;
29352;SDS011;16344;50.364;8.944;2023-04-08T06:58:17;21.00;;;12.32;;
29352;SDS011;16344;50.364;8.944;2023-04-08T07:00:42;24.42;;;14.63;;
29352;SDS011;16344;50.364;8.944;2023-04-08T07:03:08;25.05;;;15.13;;
29352;SDS011;16344;50.364;8.944;2023-04-08T07:05:35;26.98;;;15.82;;
29352;SDS011;16344;50.364;8.944;2023-04-08T07:08:01;32.15;;;18.02;;
29352;SDS011;16344;50.364;8.944;2023-04-08T07:10:26;27.55;;;15.18;;
29352;SDS011;16344;50.364;8.944;2023-04-08T07:12:52;23.63;;;13.63;;
29352;SDS011;16344;50.364;8.944;2023-04-08T07:15:18;27.85;;;15.68;;
29352;SDS011;16344;50.364;8.944;2023-04-08T07:17:43;22.95;;;14.20;;
29352;SDS011;16344;50.364;8.944;2023-04-08T07:20:10;26.35;;;15.45;;
29352;SDS011;16344;50.364;8.944;2023-04-08T07:22:36;31.67;;;16.88;;
29352;SDS011;16344;50.364;8.944;2023-04-08T07:25:01;41.13;;;19.95;;
29352;SDS011;16344;50.364;8.944;2023-04-08T07:27:27;35.25;;;17.90;;
29352;SDS011;16344;50.364;8.944;2023-04-08T07:29:52;31.50;;;18.73;;
29352;SDS011;16344;50.364;8.944;2023-04-08T07:32:18;41.22;;;17.95;;
29352;SDS011;16344;50.364;8.944;2023-04-08T07:34:44;28.33;;;16.65;;
29352;SDS011;16344;50.364;8.944;2023-04-08T07:37:10;31.40;;;16.35;;
29352;SDS011;16344;50.364;8.944;2023-04-08T07:39:36;31.55;;;17.48;;
29352;SDS011;16344;50.364;8.944;2023-04-08T07:42:01;28.95;;;16.60;;
29352;SDS011;16344;50.364;8.944;2023-04-08T07:44:27;31.27;;;17.05;;
29352;SDS011;16344;50.364;8.944;2023-04-08T07:46:52;30.58;;;15.55;;
29352;SDS011;16344;50.364;8.944;2023-04-08T07:49:18;25.73;;;15.27;;
29352;SDS011;16344;50.364;8.944;2023-04-08T07:51:43;26.15;;;16.63;;
29352;SDS011;16344;50.364;8.944;2023-04-08T07:54:09;25.75;;;14.98;;
29352;SDS011;16344;50.364;8.944;2023-04-08T07:56:36;31.98;;;17.15;;
29352;SDS011;16344;50.364;8.944;2023-04-08T07:59:04;27.95;;;17.00;;
29352;SDS011;16344;50.364;8.944;2023-04-08T08:01:30;30.42;;;17.35;;
29352;SDS011;16344;50.364;8.944;2023-04-08T08:03:58;28.08;;;17.48;;
29352;SDS011;16344;50.364;8.944;2023-04-08T08:06:24;30.60;;;17.08;;
29352;SDS011;16344;50.364;8.944;2023-04-08T08:08:51;25.67;;;15.95;;
29352;SDS011;16344;50.364;8.944;2023-04-08T08:11:17;31.08;;;16.13;;
29352;SDS011;16344;50.364;8.944;2023-04-08T08:13:42;26.35;;;14.65;;
29352;SDS011;16344;50.364;8.944;2023-04-08T08:16:08;25.95;;;15.60;;
29352;SDS011;16344;50.364;8.944;2023-04-08T08:18:35;24.00;;;15.88;;
29352;SDS011;16344;50.364;8.944;2023-04-08T08:21:01;30.10;;;16.17;;
29352;SDS011;16344;50.364;8.944;2023-04-08T08:23:27;23.83;;;15.50;;
29352;SDS011;16344;50.364;8.944;2023-04-08T08:26:03;25.60;;;15.55;;
29352;SDS011;16344;50.364;8.944;2023-04-08T08:28:30;30.52;;;17.25;;
29352;SDS011;16344;50.364;8.944;2023-04-08T08:30:59;27.85;;;15.65;;
29352;SDS011;16344;50.364;8.944;2023-04-08T08:33:25;24.92;;;15.57;;
29352;SDS011;16344;50.364;8.944;2023-04-08T08:35:50;43.00;;;16.23;;
29352;SDS011;16344;50.364;8.944;2023-04-08T08:38:16;35.03;;;16.10;;
29352;SDS011;16344;50.364;8.944;2023-04-08T08:40:42;25.23;;;15.88;;
29352;SDS011;16344;50.364;8.944;2023-04-08T08:43:09;28.27;;;17.15;;
29352;SDS011;16344;50.364;8.944;2023-04-08T08:45:38;22.63;;;14.63;;
29352;SDS011;16344;50.364;8.944;2023-04-08T08:48:05;30.83;;;15.63;;
29352;SDS011;16344;50.364;8.944;2023-04-08T08:50:32;32.55;;;15.65;;
29352;SDS011;16344;50.364;8.944;2023-04-08T08:52:58;25.25;;;14.95;;
29352;SDS011;16344;50.364;8.944;2023-04-08T08:55:24;28.40;;;15.27;;
29352;SDS011;16344;50.364;8.944;2023-04-08T08:57:49;25.08;;;14.32;;
29352;SDS011;16344;50.364;8.944;2023-04-08T09:00:15;23.67;;;14.98;;
29352;SDS011;16344;50.364;8.944;2023-04-08T09:02:41;32.47;;;16.95;;
29352;SDS011;16344;50.364;8.944;2023-04-08T09:05:07;25.73;;;16.02;;
29352;SDS011;16344;50.364;8.944;2023-04-08T09:07:36;27.15;;;14.25;;
29352;SDS011;16344;50.364;8.944;2023-04-08T09:10:05;23.35;;;14.65;;
29352;SDS011;16344;50.364;8.944;2023-04-08T09:12:31;26.00;;;13.50;;
29352;SDS011;16344;50.364;8.944;2023-04-08T09:15:04;20.10;;;12.98;;
29352;SDS011;16344;50.364;8.944;2023-04-08T09:17:35;21.52;;;13.77;;
29352;SDS011;16344;50.364;8.944;2023-04-08T09:22:53;25.55;;;13.82;;
29352;SDS011;16344;50.364;8.944;2023-04-08T09:25:25;26.92;;;12.88;;
29352;SDS011;16344;50.364;8.944;2023-04-08T09:27:52;19.88;;;12.30;;
29352;SDS011;16344;50.364;8.944;2023-04-08T09:30:18;20.92;;;11.13;;
29352;SDS011;16344;50.364;8.944;2023-04-08T09:32:52;18.85;;;11.38;;
29352;SDS011;16344;50.364;8.944;2023-04-08T09:35:19;21.33;;;11.52;;
29352;SDS011;16344;50.364;8.944;2023-04-08T09:37:45;24.48;;;12.88;;
29352;SDS011;16344;50.364;8.944;2023-04-08T09:40:12;19.73;;;11.48;;
29352;SDS011;16344;50.364;8.944;2023-04-08T09:42:39;21.35;;;11.55;;
29352;SDS011;16344;50.364;8.944;2023-04-08T09:45:08;20.98;;;10.50;;
29352;SDS011;16344;50.364;8.944;2023-04-08T09:47:38;21.58;;;11.52;;
29352;SDS011;16344;50.364;8.944;2023-04-08T09:50:08;26.95;;;12.23;;
29352;SDS011;16344;50.364;8.944;2023-04-08T09:52:38;23.00;;;11.85;;
29352;SDS011;16344;50.364;8.944;2023-04-08T09:55:08;20.00;;;11.32;;
29352;SDS011;16344;50.364;8.944;2023-04-08T09:57:40;21.05;;;11.68;;
29352;SDS011;16344;50.364;8.944;2023-04-08T10:03:00;24.90;;;12.20;;
29352;SDS011;16344;50.364;8.944;2023-04-08T10:05:36;23.88;;;11.52;;
29352;SDS011;16344;50.364;8.944;2023-04-08T10:08:04;31.55;;;13.65;;
29352;SDS011;16344;50.364;8.944;2023-04-08T10:10:31;27.92;;;12.93;;
29352;SDS011;16344;50.364;8.944;2023-04-08T10:13:01;25.80;;;10.65;;
29352;SDS011;16344;50.364;8.944;2023-04-08T10:15:29;39.67;;;7.40;;
29352;SDS011;16344;50.364;8.944;2023-04-08T10:18:28;25.88;;;7.72;;
29352;SDS011;16344;50.364;8.944;2023-04-08T10:20:45;23.58;;;10.73;;
29352;SDS011;16344;50.364;8.944;2023-04-08T10:23:12;20.23;;;12.68;;
29352;SDS011;16344;50.364;8.944;2023-04-08T10:25:42;23.05;;;12.70;;
29352;SDS011;16344;50.364;8.944;2023-04-08T10:30:49;20.63;;;10.82;;
29352;SDS011;16344;50.364;8.944;2023-04-08T10:35:53;24.45;;;12.43;;
29352;SDS011;16344;50.364;8.944;2023-04-08T10:38:23;22.27;;;12.65;;
29352;SDS011;16344;50.364;8.944;2023-04-08T10:40:49;24.40;;;12.65;;
29352;SDS011;16344;50.364;8.944;2023-04-08T10:43:15;23.77;;;13.10;;
29352;SDS011;16344;50.364;8.944;2023-04-08T10:45:42;27.00;;;12.73;;
29352;SDS011;16344;50.364;8.944;2023-04-08T10:48:15;27.20;;;13.80;;
29352;SDS011;16344;50.364;8.944;2023-04-08T10:51:00;25.27;;;13.27;;
29352;SDS011;16344;50.364;8.944;2023-04-08T10:53:28;23.45;;;14.07;;
29352;SDS011;16344;50.364;8.944;2023-04-08T10:56:07;24.50;;;13.70;;
29352;SDS011;16344;50.364;8.944;2023-04-08T10:58:51;29.10;;;14.43;;
29352;SDS011;16344;50.364;8.944;2023-04-08T11:01:20;24.52;;;15.52;;
29352;SDS011;16344;50.364;8.944;2023-04-08T11:03:45;29.13;;;15.00;;
29352;SDS011;16344;50.364;8.944;2023-04-08T11:06:11;31.98;;;15.48;;
29352;SDS011;16344;50.364;8.944;2023-04-08T11:08:36;32.95;;;16.38;;
29352;SDS011;16344;50.364;8.944;2023-04-08T11:11:02;28.75;;;15.27;;
29352;SDS011;16344;50.364;8.944;2023-04-08T11:13:33;32.50;;;14.75;;
29352;SDS011;16344;50.364;8.944;2023-04-08T11:16:00;25.77;;;14.32;;
29352;SDS011;16344;50.364;8.944;2023-04-08T11:18:29;26.88;;;14.40;;
29352;SDS011;16344;50.364;8.944;2023-04-08T11:20:56;36.08;;;16.38;;
29352;SDS011;16344;50.364;8.944;2023-04-08T11:23:25;26.65;;;15.32;;
29352;SDS011;16344;50.364;8.944;2023-04-08T11:25:51;34.05;;;13.75;;
29352;SDS011;16344;50.364;8.944;2023-04-08T11:30:43;26.25;;;13.65;;
29352;SDS011;16344;50.364;8.944;2023-04-08T11:33:09;24.90;;;13.00;;
29352;SDS011;16344;50.364;8.944;2023-04-08T11:35:42;22.88;;;12.57;;
29352;SDS011;16344;50.364;8.944;2023-04-08T11:38:09;26.63;;;13.00;;
29352;SDS011;16344;50.364;8.944;2023-04-08T11:40:35;22.35;;;11.45;;
29352;SDS011;16344;50.364;8.944;2023-04-08T11:43:10;21.40;;;12.65;;
29352;SDS011;16344;50.364;8.944;2023-04-08T11:45:37;17.02;;;9.70;;
29352;SDS011;16344;50.364;8.944;2023-04-08T11:48:08;23.67;;;10.95;;
29352;SDS011;16344;50.364;8.944;2023-04-08T11:50:34;20.88;;;11.77;;
29352;SDS011;16344;50.364;8.944;2023-04-08T11:53:00;25.50;;;12.05;;
29352;SDS011;16344;50.364;8.944;2023-04-08T11:55:29;21.50;;;11.70;;
29352;SDS011;16344;50.364;8.944;2023-04-08T11:57:56;20.50;;;11.25;;
29352;SDS011;16344;50.364;8.944;2023-04-08T12:00:27;19.10;;;9.65;;
29352;SDS011;16344;50.364;8.944;2023-04-08T12:02:53;16.75;;;9.00;;
29352;SDS011;16344;50.364;8.944;2023-04-08T12:05:19;19.25;;;10.27;;
29352;SDS011;16344;50.364;8.944;2023-04-08T12:07:45;20.13;;;10.32;;
29352;SDS011;16344;50.364;8.944;2023-04-08T12:10:11;19.50;;;10.10;;
29352;SDS011;16344;50.364;8.944;2023-04-08T12:12:37;19.50;;;9.48;;
29352;SDS011;16344;50.364;8.944;2023-04-08T12:15:03;18.55;;;9.38;;
29352;SDS011;16344;50.364;8.944;2023-04-08T12:17:29;15.32;;;9.05;;
29352;SDS011;16344;50.364;8.944;2023-04-08T12:19:55;20.67;;;12.02;;
29352;SDS011;16344;50.364;8.944;2023-04-08T12:22:21;21.38;;;12.38;;
29352;SDS011;16344;50.364;8.944;2023-04-08T12:24:47;22.40;;;12.93;;
29352;SDS011;16344;50.364;8.944;2023-04-08T12:27:12;25.90;;;13.50;;
29352;SDS011;16344;50.364;8.944;2023-04-08T12:29:38;26.25;;;13.77;;
29352;SDS011;16344;50.364;8.944;2023-04-08T12:32:03;27.65;;;12.70;;
29352;SDS011;16344;50.364;8.944;2023-04-08T12:34:30;22.73;;;13.18;;
29352;SDS011;16344;50.364;8.944;2023-04-08T12:36:56;25.40;;;13.38;;
29352;SDS011;16344;50.364;8.944;2023-04-08T12:39:22;28.17;;;13.15;;
29352;SDS011;16344;50.364;8.944;2023-04-08T12:41:48;27.95;;;12.13;;
29352;SDS011;16344;50.364;8.944;2023-04-08T12:44:13;35.00;;;11.45;;
29352;SDS011;16344;50.364;8.944;2023-04-08T12:46:39;16.02;;;9.45;;
29352;SDS011;16344;50.364;8.944;2023-04-08T12:49:05;15.07;;;7.80;;
29352;SDS011;16344;50.364;8.944;2023-04-08T12:51:30;18.50;;;7.78;;
29352;SDS011;16344;50.364;8.944;2023-04-08T12:53:56;13.65;;;7.90;;
29352;SDS011;16344;50.364;8.944;2023-04-08T12:56:21;14.32;;;7.72;;
29352;SDS011;16344;50.364;8.944;2023-04-08T12:58:47;16.38;;;8.02;;
29352;SDS011;16344;50.364;8.944;2023-04-08T13:01:12;14.75;;;8.15;;
29352;SDS011;16344;50.364;8.944;2023-04-08T13:03:38;12.75;;;7.95;;
29352;SDS011;16344;50.364;8.944;2023-04-08T13:06:04;21.77;;;11.45;;
29352;SDS011;16344;50.364;8.944;2023-04-08T13:08:29;20.48;;;12.45;;
29352;SDS011;16344;50.364;8.944;2023-04-08T13:10:55;22.63;;;13.05;;
29352;SDS011;16344;50.364;8.944;2023-04-08T13:13:20;22.27;;;11.48;;
29352;SDS011;16344;50.364;8.944;2023-04-08T13:15:46;27.55;;;14.90;;
29352;SDS011;16344;50.364;8.944;2023-04-08T13:18:12;22.77;;;13.40;;
29352;SDS011;16344;50.364;8.944;2023-04-08T13:20:38;29.48;;;15.18;;
29352;SDS011;16344;50.364;8.944;2023-04-08T13:23:03;30.50;;;15.65;;
29352;SDS011;16344;50.364;8.944;2023-04-08T13:25:29;30.00;;;15.27;;
29352;SDS011;16344;50.364;8.944;2023-04-08T13:27:54;27.95;;;14.90;;
29352;SDS011;16344;50.364;8.944;2023-04-08T13:30:20;25.80;;;13.63;;
29352;SDS011;16344;50.364;8.944;2023-04-08T13:32:45;22.88;;;12.35;;
29352;SDS011;16344;50.364;8.944;2023-04-08T13:35:11;25.27;;;13.57;;
29352;SDS011;16344;50.364;8.944;2023-04-08T13:37:37;25.98;;;13.25;;
29352;SDS011;16344;50.364;8.944;2023-04-08T13:40:02;27.60;;;13.13;;
29352;SDS011;16344;50.364;8.944;2023-04-08T13:42:28;19.80;;;10.93;;
29352;SDS011;16344;50.364;8.944;2023-04-08T13:44:55;20.48;;;11.43;;
29352;SDS011;16344;50.364;8.944;2023-04-08T13:47:21;16.30;;;9.95;;
29352;SDS011;16344;50.364;8.944;2023-04-08T13:49:47;27.17;;;12.50;;
29352;SDS011;16344;50.364;8.944;2023-04-08T13:52:12;23.95;;;12.57;;
29352;SDS011;16344;50.364;8.944;2023-04-08T13:54:38;29.05;;;15.38;;
29352;SDS011;16344;50.364;8.944;2023-04-08T13:57:03;25.90;;;14.65;;
29352;SDS011;16344;50.364;8.944;2023-04-08T13:59:29;22.75;;;12.43;;
29352;SDS011;16344;50.364;8.944;2023-04-08T14:01:55;23.70;;;13.90;;
29352;SDS011;16344;50.364;8.944;2023-04-08T14:04:21;26.92;;;13.95;;
29352;SDS011;16344;50.364;8.944;2023-04-08T14:06:47;21.98;;;13.73;;
29352;SDS011;16344;50.364;8.944;2023-04-08T14:09:14;23.88;;;14.25;;
29352;SDS011;16344;50.364;8.944;2023-04-08T14:11:40;23.58;;;12.52;;
29352;SDS011;16344;50.364;8.944;2023-04-08T14:14:06;19.75;;;11.43;;
29352;SDS011;16344;50.364;8.944;2023-04-08T14:16:31;20.38;;;12.30;;
29352;SDS011;16344;50.364;8.944;2023-04-08T14:18:57;19.80;;;12.25;;
29352;SDS011;16344;50.364;8.944;2023-04-08T14:21:22;19.23;;;11.27;;
29352;SDS011;16344;50.364;8.944;2023-04-08T14:23:48;19.90;;;11.85;;
29352;SDS011;16344;50.364;8.944;2023-04-08T14:26:14;19.33;;;10.88;;
29352;SDS011;16344;50.364;8.944;2023-04-08T14:28:39;18.15;;;10.30;;
29352;SDS011;16344;50.364;8.944;2023-04-08T14:31:05;24.52;;;12.40;;
29352;SDS011;16344;50.364;8.944;2023-04-08T14:33:31;22.88;;;12.10;;
29352;SDS011;16344;50.364;8.944;2023-04-08T14:35:56;23.85;;;11.98;;
29352;SDS011;16344;50.364;8.944;2023-04-08T14:38:23;21.10;;;12.23;;